sensor_id;sensor_type;location;lat;lon;timestamp;temperature;humidity
15951;DHT22;8074;48.112;11.570;2022-10-26T00:01:08;10.50;99.90
15951;DHT22;8074;48.112;11.570;2022-10-26T00:03:35;10.40;99.90
15951;DHT22;8074;48.112;11.570;2022-10-26T00:06:05;10.40;99.90
15951;DHT22;8074;48.112;11.570;2022-10-26T00:08:32;10.20;99.90
15951;DHT22;8074;48.112;11.570;2022-10-26T00:11:00;10.40;99.90
15951;DHT22;8074;48.112;11.570;2022-10-26T00:13:27;10.30;99.90
15951;DHT22;8074;48.112;11.570;2022-10-26T00:15:54;10.30;99.90
15951;DHT22;8074;48.112;11.570;2022-10-26T00:18:21;10.50;99.90
15951;DHT22;8074;48.112;11.570;2022-10-26T00:20:48;10.40;99.90
15951;DHT22;8074;48.112;11.570;2022-10-26T00:23:15;10.30;99.90
15951;DHT22;8074;48.112;11.570;2022-10-26T00:25:43;10.20;99.90
15951;DHT22;8074;48.112;11.570;2022-10-26T00:28:11;10.20;99.90
15951;DHT22;8074;48.112;11.570;2022-10-26T00:30:39;10.30;99.90
15951;DHT22;8074;48.112;11.570;2022-10-26T00:33:08;10.70;99.90
15951;DHT22;8074;48.112;11.570;2022-10-26T00:35:35;10.90;99.90
15951;DHT22;8074;48.112;11.570;2022-10-26T00:38:02;10.80;99.90
15951;DHT22;8074;48.112;11.570;2022-10-26T00:40:29;10.70;99.90
15951;DHT22;8074;48.112;11.570;2022-10-26T00:42:56;10.70;99.90
15951;DHT22;8074;48.112;11.570;2022-10-26T00:45:26;10.60;99.90
15951;DHT22;8074;48.112;11.570;2022-10-26T00:47:55;10.90;99.90
15951;DHT22;8074;48.112;11.570;2022-10-26T00:50:26;11.10;99.90
15951;DHT22;8074;48.112;11.570;2022-10-26T00:52:56;11.10;99.90
15951;DHT22;8074;48.112;11.570;2022-10-26T00:55:26;11.20;99.90
15951;DHT22;8074;48.112;11.570;2022-10-26T00:57:55;11.20;99.90
15951;DHT22;8074;48.112;11.570;2022-10-26T01:00:23;11.10;99.90
15951;DHT22;8074;48.112;11.570;2022-10-26T01:02:50;11.20;99.90
15951;DHT22;8074;48.112;11.570;2022-10-26T01:05:18;11.50;99.90
15951;DHT22;8074;48.112;11.570;2022-10-26T01:07:46;11.20;99.90
15951;DHT22;8074;48.112;11.570;2022-10-26T01:10:13;11.20;99.90
15951;DHT22;8074;48.112;11.570;2022-10-26T01:12:41;11.30;99.90
15951;DHT22;8074;48.112;11.570;2022-10-26T01:15:08;11.30;99.90
15951;DHT22;8074;48.112;11.570;2022-10-26T01:17:50;11.30;99.90
15951;DHT22;8074;48.112;11.570;2022-10-26T01:20:43;11.30;99.90
15951;DHT22;8074;48.112;11.570;2022-10-26T01:23:22;11.40;99.90
15951;DHT22;8074;48.112;11.570;2022-10-26T01:26:11;11.60;99.90
15951;DHT22;8074;48.112;11.570;2022-10-26T01:29:05;11.50;99.90
15951;DHT22;8074;48.112;11.570;2022-10-26T01:31:38;11.10;99.90
15951;DHT22;8074;48.112;11.570;2022-10-26T01:34:11;11.30;99.90
15951;DHT22;8074;48.112;11.570;2022-10-26T01:36:43;11.10;99.90
15951;DHT22;8074;48.112;11.570;2022-10-26T01:39:15;11.40;99.90
15951;DHT22;8074;48.112;11.570;2022-10-26T01:41:46;11.40;99.90
15951;DHT22;8074;48.112;11.570;2022-10-26T01:44:17;11.10;99.90
15951;DHT22;8074;48.112;11.570;2022-10-26T01:46:47;11.00;99.90
15951;DHT22;8074;48.112;11.570;2022-10-26T01:49:16;11.30;99.90
15951;DHT22;8074;48.112;11.570;2022-10-26T01:51:47;11.40;99.90
15951;DHT22;8074;48.112;11.570;2022-10-26T01:54:15;11.50;99.90
15951;DHT22;8074;48.112;11.570;2022-10-26T01:56:46;11.20;99.90
15951;DHT22;8074;48.112;11.570;2022-10-26T01:59:28;10.90;99.90
15951;DHT22;8074;48.112;11.570;2022-10-26T02:02:21;11.10;99.90
15951;DHT22;8074;48.112;11.570;2022-10-26T02:10:24;11.40;99.90
15951;DHT22;8074;48.112;11.570;2022-10-26T02:15:33;11.30;99.90
15951;DHT22;8074;48.112;11.570;2022-10-26T02:20:57;11.40;99.90
15951;DHT22;8074;48.112;11.570;2022-10-26T02:23:26;11.30;99.90
15951;DHT22;8074;48.112;11.570;2022-10-26T02:28:24;11.40;99.90
15951;DHT22;8074;48.112;11.570;2022-10-26T02:30:54;11.40;99.90
15951;DHT22;8074;48.112;11.570;2022-10-26T02:33:25;11.20;99.90
15951;DHT22;8074;48.112;11.570;2022-10-26T02:35:58;11.40;99.90
15951;DHT22;8074;48.112;11.570;2022-10-26T02:38:28;11.30;99.90
15951;DHT22;8074;48.112;11.570;2022-10-26T02:40:56;11.40;99.90
15951;DHT22;8074;48.112;11.570;2022-10-26T02:43:24;11.40;99.90
15951;DHT22;8074;48.112;11.570;2022-10-26T02:45:53;11.20;99.90
15951;DHT22;8074;48.112;11.570;2022-10-26T02:50:59;11.30;99.90
15951;DHT22;8074;48.112;11.570;2022-10-26T02:55:52;11.30;99.90
15951;DHT22;8074;48.112;11.570;2022-10-26T02:58:22;11.40;99.90
15951;DHT22;8074;48.112;11.570;2022-10-26T03:00:50;11.60;99.90
15951;DHT22;8074;48.112;11.570;2022-10-26T03:03:18;11.90;99.90
15951;DHT22;8074;48.112;11.570;2022-10-26T03:05:45;12.00;99.90
15951;DHT22;8074;48.112;11.570;2022-10-26T03:08:13;12.10;99.90
15951;DHT22;8074;48.112;11.570;2022-10-26T03:10:42;11.90;99.90
15951;DHT22;8074;48.112;11.570;2022-10-26T03:13:10;12.10;99.90
15951;DHT22;8074;48.112;11.570;2022-10-26T03:15:37;12.00;99.90
15951;DHT22;8074;48.112;11.570;2022-10-26T03:18:05;12.00;99.90
15951;DHT22;8074;48.112;11.570;2022-10-26T03:20:32;12.00;99.90
15951;DHT22;8074;48.112;11.570;2022-10-26T03:22:59;11.90;99.90
15951;DHT22;8074;48.112;11.570;2022-10-26T03:25:27;11.90;99.90
15951;DHT22;8074;48.112;11.570;2022-10-26T03:27:57;11.90;99.90
15951;DHT22;8074;48.112;11.570;2022-10-26T03:30:25;11.90;99.90
15951;DHT22;8074;48.112;11.570;2022-10-26T03:32:52;11.70;99.90
15951;DHT22;8074;48.112;11.570;2022-10-26T03:35:19;11.60;99.90
15951;DHT22;8074;48.112;11.570;2022-10-26T03:40:17;11.50;99.90
15951;DHT22;8074;48.112;11.570;2022-10-26T03:42:46;11.70;99.90
15951;DHT22;8074;48.112;11.570;2022-10-26T03:45:13;12.00;99.90
15951;DHT22;8074;48.112;11.570;2022-10-26T03:47:47;12.00;99.90
15951;DHT22;8074;48.112;11.570;2022-10-26T03:50:21;11.70;99.90
15951;DHT22;8074;48.112;11.570;2022-10-26T03:52:52;11.70;99.90
15951;DHT22;8074;48.112;11.570;2022-10-26T03:55:19;12.10;99.90
15951;DHT22;8074;48.112;11.570;2022-10-26T04:01:05;11.70;99.90
15951;DHT22;8074;48.112;11.570;2022-10-26T04:03:32;11.90;99.90
15951;DHT22;8074;48.112;11.570;2022-10-26T04:08:24;11.60;99.90
15951;DHT22;8074;48.112;11.570;2022-10-26T04:10:51;11.60;99.90
15951;DHT22;8074;48.112;11.570;2022-10-26T04:13:18;11.90;99.90
15951;DHT22;8074;48.112;11.570;2022-10-26T04:15:45;12.10;99.90
15951;DHT22;8074;48.112;11.570;2022-10-26T04:18:13;12.00;99.90
15951;DHT22;8074;48.112;11.570;2022-10-26T04:20:40;12.00;99.90
15951;DHT22;8074;48.112;11.570;2022-10-26T04:23:10;12.10;99.90
15951;DHT22;8074;48.112;11.570;2022-10-26T04:25:37;12.00;99.90
15951;DHT22;8074;48.112;11.570;2022-10-26T04:28:05;12.10;99.90
15951;DHT22;8074;48.112;11.570;2022-10-26T04:30:34;12.30;99.90
15951;DHT22;8074;48.112;11.570;2022-10-26T04:33:08;12.20;99.90
15951;DHT22;8074;48.112;11.570;2022-10-26T04:35:41;12.40;99.90
15951;DHT22;8074;48.112;11.570;2022-10-26T04:38:10;12.50;99.90
15951;DHT22;8074;48.112;11.570;2022-10-26T04:40:37;12.50;99.90
15951;DHT22;8074;48.112;11.570;2022-10-26T04:43:04;12.30;99.90
15951;DHT22;8074;48.112;11.570;2022-10-26T04:45:31;12.30;99.90
15951;DHT22;8074;48.112;11.570;2022-10-26T04:48:00;12.50;99.90
15951;DHT22;8074;48.112;11.570;2022-10-26T04:50:27;12.40;99.90
15951;DHT22;8074;48.112;11.570;2022-10-26T04:52:55;12.10;99.90
15951;DHT22;8074;48.112;11.570;2022-10-26T04:55:23;12.00;99.90
15951;DHT22;8074;48.112;11.570;2022-10-26T04:57:50;12.20;99.90
15951;DHT22;8074;48.112;11.570;2022-10-26T05:00:18;12.20;99.90
15951;DHT22;8074;48.112;11.570;2022-10-26T05:02:45;12.40;99.90
15951;DHT22;8074;48.112;11.570;2022-10-26T05:05:16;12.60;99.90
15951;DHT22;8074;48.112;11.570;2022-10-26T05:08:05;12.60;99.90
15951;DHT22;8074;48.112;11.570;2022-10-26T05:10:48;12.70;99.90
15951;DHT22;8074;48.112;11.570;2022-10-26T05:13:15;12.70;99.90
15951;DHT22;8074;48.112;11.570;2022-10-26T05:15:42;12.80;99.90
15951;DHT22;8074;48.112;11.570;2022-10-26T05:18:09;12.90;99.90
15951;DHT22;8074;48.112;11.570;2022-10-26T05:20:36;12.70;99.90
15951;DHT22;8074;48.112;11.570;2022-10-26T05:23:06;12.70;99.90
15951;DHT22;8074;48.112;11.570;2022-10-26T05:25:35;12.80;99.90
15951;DHT22;8074;48.112;11.570;2022-10-26T05:28:03;12.90;99.90
15951;DHT22;8074;48.112;11.570;2022-10-26T05:30:33;12.70;99.90
15951;DHT22;8074;48.112;11.570;2022-10-26T05:33:03;12.70;99.90
15951;DHT22;8074;48.112;11.570;2022-10-26T05:35:30;12.80;99.90
15951;DHT22;8074;48.112;11.570;2022-10-26T05:37:58;12.60;99.90
15951;DHT22;8074;48.112;11.570;2022-10-26T05:40:26;12.60;99.90
15951;DHT22;8074;48.112;11.570;2022-10-26T05:42:58;12.70;99.90
15951;DHT22;8074;48.112;11.570;2022-10-26T05:45:25;12.90;99.90
15951;DHT22;8074;48.112;11.570;2022-10-26T05:47:52;13.00;99.90
15951;DHT22;8074;48.112;11.570;2022-10-26T05:50:22;12.90;99.90
15951;DHT22;8074;48.112;11.570;2022-10-26T05:52:50;12.80;99.90
15951;DHT22;8074;48.112;11.570;2022-10-26T05:55:22;12.60;99.90
15951;DHT22;8074;48.112;11.570;2022-10-26T05:57:52;12.70;99.90
15951;DHT22;8074;48.112;11.570;2022-10-26T06:00:21;12.80;99.90
15951;DHT22;8074;48.112;11.570;2022-10-26T06:03:00;13.10;99.90
15951;DHT22;8074;48.112;11.570;2022-10-26T06:05:37;13.20;99.90
15951;DHT22;8074;48.112;11.570;2022-10-26T06:08:09;13.20;99.90
15951;DHT22;8074;48.112;11.570;2022-10-26T06:10:37;13.00;99.90
15951;DHT22;8074;48.112;11.570;2022-10-26T06:13:06;13.00;99.90
15951;DHT22;8074;48.112;11.570;2022-10-26T06:15:39;13.10;99.90
15951;DHT22;8074;48.112;11.570;2022-10-26T06:18:15;12.80;99.90
15951;DHT22;8074;48.112;11.570;2022-10-26T06:20:50;12.90;99.90
15951;DHT22;8074;48.112;11.570;2022-10-26T06:23:45;13.10;99.90
15951;DHT22;8074;48.112;11.570;2022-10-26T06:26:25;13.10;99.90
15951;DHT22;8074;48.112;11.570;2022-10-26T06:29:05;13.20;99.90
15951;DHT22;8074;48.112;11.570;2022-10-26T06:31:35;13.10;99.90
15951;DHT22;8074;48.112;11.570;2022-10-26T06:34:02;12.90;99.90
15951;DHT22;8074;48.112;11.570;2022-10-26T06:36:30;13.00;99.90
15951;DHT22;8074;48.112;11.570;2022-10-26T06:39:01;12.70;99.90
15951;DHT22;8074;48.112;11.570;2022-10-26T06:41:34;12.80;99.90
15951;DHT22;8074;48.112;11.570;2022-10-26T06:44:04;12.80;99.90
15951;DHT22;8074;48.112;11.570;2022-10-26T06:46:37;13.10;99.90
15951;DHT22;8074;48.112;11.570;2022-10-26T06:49:10;13.10;99.90
15951;DHT22;8074;48.112;11.570;2022-10-26T06:51:46;12.90;99.90
15951;DHT22;8074;48.112;11.570;2022-10-26T06:54:20;13.10;99.90
15951;DHT22;8074;48.112;11.570;2022-10-26T06:56:49;13.30;99.90
15951;DHT22;8074;48.112;11.570;2022-10-26T06:59:31;13.30;99.90
15951;DHT22;8074;48.112;11.570;2022-10-26T07:02:02;13.50;99.90
15951;DHT22;8074;48.112;11.570;2022-10-26T07:04:29;13.60;99.90
15951;DHT22;8074;48.112;11.570;2022-10-26T07:06:56;13.70;99.90
15951;DHT22;8074;48.112;11.570;2022-10-26T07:09:23;13.90;99.90
15951;DHT22;8074;48.112;11.570;2022-10-26T07:11:50;13.70;99.90
15951;DHT22;8074;48.112;11.570;2022-10-26T07:14:17;13.90;99.90
15951;DHT22;8074;48.112;11.570;2022-10-26T07:16:45;14.00;99.90
15951;DHT22;8074;48.112;11.570;2022-10-26T07:19:13;14.10;99.90
15951;DHT22;8074;48.112;11.570;2022-10-26T07:21:40;14.00;99.90
15951;DHT22;8074;48.112;11.570;2022-10-26T07:24:07;14.00;99.90
15951;DHT22;8074;48.112;11.570;2022-10-26T07:26:41;14.00;99.90
15951;DHT22;8074;48.112;11.570;2022-10-26T07:29:12;14.20;99.90
15951;DHT22;8074;48.112;11.570;2022-10-26T07:31:39;14.10;99.90
15951;DHT22;8074;48.112;11.570;2022-10-26T07:34:07;13.80;99.90
15951;DHT22;8074;48.112;11.570;2022-10-26T07:36:34;13.60;99.90
15951;DHT22;8074;48.112;11.570;2022-10-26T07:39:02;13.50;99.90
15951;DHT22;8074;48.112;11.570;2022-10-26T07:41:29;13.40;99.90
15951;DHT22;8074;48.112;11.570;2022-10-26T07:43:56;13.20;99.90
15951;DHT22;8074;48.112;11.570;2022-10-26T07:46:23;13.10;99.90
15951;DHT22;8074;48.112;11.570;2022-10-26T07:48:50;13.10;99.90
15951;DHT22;8074;48.112;11.570;2022-10-26T07:51:18;13.10;99.90
15951;DHT22;8074;48.112;11.570;2022-10-26T07:53:48;13.20;99.90
15951;DHT22;8074;48.112;11.570;2022-10-26T07:56:15;13.40;99.90
15951;DHT22;8074;48.112;11.570;2022-10-26T07:58:42;13.40;99.90
15951;DHT22;8074;48.112;11.570;2022-10-26T08:01:11;13.40;99.90
15951;DHT22;8074;48.112;11.570;2022-10-26T08:03:38;13.40;99.90
15951;DHT22;8074;48.112;11.570;2022-10-26T08:06:06;13.40;99.90
15951;DHT22;8074;48.112;11.570;2022-10-26T08:08:35;13.40;99.90
15951;DHT22;8074;48.112;11.570;2022-10-26T08:11:04;13.40;99.90
15951;DHT22;8074;48.112;11.570;2022-10-26T08:13:34;13.50;99.90
15951;DHT22;8074;48.112;11.570;2022-10-26T08:16:02;13.50;99.90
15951;DHT22;8074;48.112;11.570;2022-10-26T08:18:29;13.60;99.90
15951;DHT22;8074;48.112;11.570;2022-10-26T08:21:01;13.80;99.90
15951;DHT22;8074;48.112;11.570;2022-10-26T08:23:29;13.80;99.90
15951;DHT22;8074;48.112;11.570;2022-10-26T08:25:58;14.00;99.90
15951;DHT22;8074;48.112;11.570;2022-10-26T08:28:26;14.20;99.90
15951;DHT22;8074;48.112;11.570;2022-10-26T08:30:53;14.70;99.90
15951;DHT22;8074;48.112;11.570;2022-10-26T08:33:21;15.20;99.90
15951;DHT22;8074;48.112;11.570;2022-10-26T08:35:53;15.80;99.90
15951;DHT22;8074;48.112;11.570;2022-10-26T08:38:23;16.40;99.90
15951;DHT22;8074;48.112;11.570;2022-10-26T08:40:50;17.20;99.90
15951;DHT22;8074;48.112;11.570;2022-10-26T08:43:25;17.80;99.90
15951;DHT22;8074;48.112;11.570;2022-10-26T08:46:08;17.50;99.90
15951;DHT22;8074;48.112;11.570;2022-10-26T08:48:39;17.80;99.90
15951;DHT22;8074;48.112;11.570;2022-10-26T08:51:12;18.00;99.90
15951;DHT22;8074;48.112;11.570;2022-10-26T08:53:46;18.30;99.90
15951;DHT22;8074;48.112;11.570;2022-10-26T08:56:22;18.50;99.90
15951;DHT22;8074;48.112;11.570;2022-10-26T08:59:09;18.70;99.90
15951;DHT22;8074;48.112;11.570;2022-10-26T09:01:37;19.50;99.90
15951;DHT22;8074;48.112;11.570;2022-10-26T09:04:09;19.60;99.90
15951;DHT22;8074;48.112;11.570;2022-10-26T09:06:47;19.40;99.90
15951;DHT22;8074;48.112;11.570;2022-10-26T09:09:19;19.20;99.90
15951;DHT22;8074;48.112;11.570;2022-10-26T09:11:54;19.30;99.90
15951;DHT22;8074;48.112;11.570;2022-10-26T09:14:32;19.20;99.90
15951;DHT22;8074;48.112;11.570;2022-10-26T09:17:09;19.40;99.90
15951;DHT22;8074;48.112;11.570;2022-10-26T09:19:53;19.50;99.90
15951;DHT22;8074;48.112;11.570;2022-10-26T09:22:23;19.50;99.90
15951;DHT22;8074;48.112;11.570;2022-10-26T09:24:53;19.60;99.90
15951;DHT22;8074;48.112;11.570;2022-10-26T09:27:25;19.70;99.90
15951;DHT22;8074;48.112;11.570;2022-10-26T09:30:13;20.20;99.90
15951;DHT22;8074;48.112;11.570;2022-10-26T09:32:45;20.80;99.90
15951;DHT22;8074;48.112;11.570;2022-10-26T09:35:15;22.10;99.90
15951;DHT22;8074;48.112;11.570;2022-10-26T09:37:47;22.60;99.90
15951;DHT22;8074;48.112;11.570;2022-10-26T09:40:19;22.60;99.90
15951;DHT22;8074;48.112;11.570;2022-10-26T09:42:51;22.70;99.90
15951;DHT22;8074;48.112;11.570;2022-10-26T09:45:27;23.40;99.90
15951;DHT22;8074;48.112;11.570;2022-10-26T09:47:58;23.30;99.90
15951;DHT22;8074;48.112;11.570;2022-10-26T09:50:30;22.40;99.90
15951;DHT22;8074;48.112;11.570;2022-10-26T09:52:58;22.40;99.90
15951;DHT22;8074;48.112;11.570;2022-10-26T09:55:25;22.80;99.90
15951;DHT22;8074;48.112;11.570;2022-10-26T09:58:02;23.70;99.90
15951;DHT22;8074;48.112;11.570;2022-10-26T10:00:42;23.60;99.90
15951;DHT22;8074;48.112;11.570;2022-10-26T10:03:31;22.60;99.90
15951;DHT22;8074;48.112;11.570;2022-10-26T10:06:14;22.00;99.90
15951;DHT22;8074;48.112;11.570;2022-10-26T10:08:42;22.10;99.90
15951;DHT22;8074;48.112;11.570;2022-10-26T10:11:12;22.10;99.90
15951;DHT22;8074;48.112;11.570;2022-10-26T10:13:41;21.60;99.90
15951;DHT22;8074;48.112;11.570;2022-10-26T10:16:19;21.60;99.90
15951;DHT22;8074;48.112;11.570;2022-10-26T10:18:52;21.40;99.90
15951;DHT22;8074;48.112;11.570;2022-10-26T10:21:20;21.00;99.90
15951;DHT22;8074;48.112;11.570;2022-10-26T10:23:48;20.90;99.90
15951;DHT22;8074;48.112;11.570;2022-10-26T10:26:17;21.00;99.90
15951;DHT22;8074;48.112;11.570;2022-10-26T10:28:56;21.00;99.90
15951;DHT22;8074;48.112;11.570;2022-10-26T10:31:28;20.90;99.90
15951;DHT22;8074;48.112;11.570;2022-10-26T10:33:55;21.00;99.90
15951;DHT22;8074;48.112;11.570;2022-10-26T10:36:24;21.30;99.90
15951;DHT22;8074;48.112;11.570;2022-10-26T10:38:53;21.30;99.90
15951;DHT22;8074;48.112;11.570;2022-10-26T10:41:25;21.40;99.90
15951;DHT22;8074;48.112;11.570;2022-10-26T10:43:59;21.10;99.90
15951;DHT22;8074;48.112;11.570;2022-10-26T10:46:36;20.80;99.90
15951;DHT22;8074;48.112;11.570;2022-10-26T10:49:05;20.70;99.90
15951;DHT22;8074;48.112;11.570;2022-10-26T10:51:37;20.70;99.90
15951;DHT22;8074;48.112;11.570;2022-10-26T10:54:17;20.70;99.90
15951;DHT22;8074;48.112;11.570;2022-10-26T10:56:48;20.60;99.90
15951;DHT22;8074;48.112;11.570;2022-10-26T10:59:46;20.60;99.90
15951;DHT22;8074;48.112;11.570;2022-10-26T11:02:28;20.90;99.90
15951;DHT22;8074;48.112;11.570;2022-10-26T11:05:20;20.90;99.90
15951;DHT22;8074;48.112;11.570;2022-10-26T11:07:53;20.50;99.90
15951;DHT22;8074;48.112;11.570;2022-10-26T11:10:23;20.40;99.90
15951;DHT22;8074;48.112;11.570;2022-10-26T11:12:56;20.20;99.90
15951;DHT22;8074;48.112;11.570;2022-10-26T11:15:25;20.30;99.90
15951;DHT22;8074;48.112;11.570;2022-10-26T11:18:00;20.50;99.90
15951;DHT22;8074;48.112;11.570;2022-10-26T11:20:34;20.60;99.90
15951;DHT22;8074;48.112;11.570;2022-10-26T11:23:08;20.70;99.90
15951;DHT22;8074;48.112;11.570;2022-10-26T11:25:43;20.70;99.90
15951;DHT22;8074;48.112;11.570;2022-10-26T11:28:17;20.30;99.90
15951;DHT22;8074;48.112;11.570;2022-10-26T11:30:48;20.40;99.90
15951;DHT22;8074;48.112;11.570;2022-10-26T11:33:24;20.30;99.90
15951;DHT22;8074;48.112;11.570;2022-10-26T11:35:56;20.50;99.90
15951;DHT22;8074;48.112;11.570;2022-10-26T11:38:30;20.70;99.90
15951;DHT22;8074;48.112;11.570;2022-10-26T11:41:02;20.90;99.90
15951;DHT22;8074;48.112;11.570;2022-10-26T11:43:36;20.80;99.90
15951;DHT22;8074;48.112;11.570;2022-10-26T11:46:08;20.60;99.90
15951;DHT22;8074;48.112;11.570;2022-10-26T11:48:43;20.60;99.90
15951;DHT22;8074;48.112;11.570;2022-10-26T11:51:19;20.50;99.90
15951;DHT22;8074;48.112;11.570;2022-10-26T11:53:48;20.60;99.90
15951;DHT22;8074;48.112;11.570;2022-10-26T11:56:24;20.70;99.90
15951;DHT22;8074;48.112;11.570;2022-10-26T11:58:53;20.60;99.90
15951;DHT22;8074;48.112;11.570;2022-10-26T12:01:22;20.60;99.90
15951;DHT22;8074;48.112;11.570;2022-10-26T12:03:53;20.50;99.90
15951;DHT22;8074;48.112;11.570;2022-10-26T12:06:26;20.20;99.90
15951;DHT22;8074;48.112;11.570;2022-10-26T12:08:58;20.00;99.90
15951;DHT22;8074;48.112;11.570;2022-10-26T12:11:39;19.70;99.90
15951;DHT22;8074;48.112;11.570;2022-10-26T12:14:16;19.70;99.90
15951;DHT22;8074;48.112;11.570;2022-10-26T12:16:51;19.60;99.90
15951;DHT22;8074;48.112;11.570;2022-10-26T12:19:27;19.50;99.90
15951;DHT22;8074;48.112;11.570;2022-10-26T12:21:55;19.50;99.90
15951;DHT22;8074;48.112;11.570;2022-10-26T12:24:28;19.40;99.90
15951;DHT22;8074;48.112;11.570;2022-10-26T12:26:59;19.50;99.90
15951;DHT22;8074;48.112;11.570;2022-10-26T12:29:38;19.60;99.90
15951;DHT22;8074;48.112;11.570;2022-10-26T12:35:40;19.90;99.90
15951;DHT22;8074;48.112;11.570;2022-10-26T12:41:22;20.40;99.90
15951;DHT22;8074;48.112;11.570;2022-10-26T12:43:55;20.50;99.90
15951;DHT22;8074;48.112;11.570;2022-10-26T12:46:39;20.90;99.90
15951;DHT22;8074;48.112;11.570;2022-10-26T12:52:48;21.70;99.90
15951;DHT22;8074;48.112;11.570;2022-10-26T13:01:56;21.50;99.90
15951;DHT22;8074;48.112;11.570;2022-10-26T13:04:52;21.20;99.90
15951;DHT22;8074;48.112;11.570;2022-10-26T13:07:22;21.20;99.90
15951;DHT22;8074;48.112;11.570;2022-10-26T13:09:57;21.60;99.90
15951;DHT22;8074;48.112;11.570;2022-10-26T13:12:25;22.40;99.90
15951;DHT22;8074;48.112;11.570;2022-10-26T13:15:00;23.60;99.90
15951;DHT22;8074;48.112;11.570;2022-10-26T13:17:30;25.10;99.90
15951;DHT22;8074;48.112;11.570;2022-10-26T13:20:00;24.10;99.90
15951;DHT22;8074;48.112;11.570;2022-10-26T13:22:27;23.10;99.90
15951;DHT22;8074;48.112;11.570;2022-10-26T13:25:01;22.00;99.90
15951;DHT22;8074;48.112;11.570;2022-10-26T13:28:00;21.50;99.90
15951;DHT22;8074;48.112;11.570;2022-10-26T13:30:46;21.20;99.90
15951;DHT22;8074;48.112;11.570;2022-10-26T13:33:34;20.50;99.90
15951;DHT22;8074;48.112;11.570;2022-10-26T13:36:10;20.40;99.90
15951;DHT22;8074;48.112;11.570;2022-10-26T13:38:41;20.50;99.90
15951;DHT22;8074;48.112;11.570;2022-10-26T13:41:18;20.50;99.90
15951;DHT22;8074;48.112;11.570;2022-10-26T13:43:46;20.40;99.90
15951;DHT22;8074;48.112;11.570;2022-10-26T13:46:26;20.60;99.90
15951;DHT22;8074;48.112;11.570;2022-10-26T13:48:58;20.60;99.90
15951;DHT22;8074;48.112;11.570;2022-10-26T13:51:35;20.50;99.90
15951;DHT22;8074;48.112;11.570;2022-10-26T13:54:13;20.50;99.90
15951;DHT22;8074;48.112;11.570;2022-10-26T13:56:47;20.40;99.90
15951;DHT22;8074;48.112;11.570;2022-10-26T13:59:21;20.50;99.90
15951;DHT22;8074;48.112;11.570;2022-10-26T14:02:05;20.50;99.90
15951;DHT22;8074;48.112;11.570;2022-10-26T14:04:32;20.70;99.90
15951;DHT22;8074;48.112;11.570;2022-10-26T14:06:59;20.80;99.90
15951;DHT22;8074;48.112;11.570;2022-10-26T14:09:28;20.80;99.90
15951;DHT22;8074;48.112;11.570;2022-10-26T14:11:58;21.00;99.90
15951;DHT22;8074;48.112;11.570;2022-10-26T14:14:28;21.00;99.90
15951;DHT22;8074;48.112;11.570;2022-10-26T14:16:56;21.00;99.90
15951;DHT22;8074;48.112;11.570;2022-10-26T14:19:26;21.00;99.90
15951;DHT22;8074;48.112;11.570;2022-10-26T14:21:54;21.00;99.90
15951;DHT22;8074;48.112;11.570;2022-10-26T14:24:22;21.10;99.90
15951;DHT22;8074;48.112;11.570;2022-10-26T14:26:52;21.20;99.90
15951;DHT22;8074;48.112;11.570;2022-10-26T14:29:22;20.90;99.90
15951;DHT22;8074;48.112;11.570;2022-10-26T14:31:50;20.90;99.90
15951;DHT22;8074;48.112;11.570;2022-10-26T14:34:18;20.50;99.90
15951;DHT22;8074;48.112;11.570;2022-10-26T14:36:48;20.40;99.90
15951;DHT22;8074;48.112;11.570;2022-10-26T14:39:20;20.40;99.90
15951;DHT22;8074;48.112;11.570;2022-10-26T14:41:51;20.00;99.90
15951;DHT22;8074;48.112;11.570;2022-10-26T14:44:22;19.80;99.90
15951;DHT22;8074;48.112;11.570;2022-10-26T14:46:50;19.80;99.90
15951;DHT22;8074;48.112;11.570;2022-10-26T14:49:21;19.80;99.90
15951;DHT22;8074;48.112;11.570;2022-10-26T14:51:49;19.70;99.90
15951;DHT22;8074;48.112;11.570;2022-10-26T14:54:23;19.70;99.90
15951;DHT22;8074;48.112;11.570;2022-10-26T14:56:50;19.60;99.90
15951;DHT22;8074;48.112;11.570;2022-10-26T14:59:21;19.60;99.90
15951;DHT22;8074;48.112;11.570;2022-10-26T15:01:52;19.60;99.90
15951;DHT22;8074;48.112;11.570;2022-10-26T15:04:32;19.70;99.90
15951;DHT22;8074;48.112;11.570;2022-10-26T15:07:08;19.70;99.90
15951;DHT22;8074;48.112;11.570;2022-10-26T15:09:42;19.60;99.90
15951;DHT22;8074;48.112;11.570;2022-10-26T15:12:27;19.50;99.90
15951;DHT22;8074;48.112;11.570;2022-10-26T15:15:00;19.40;99.90
15951;DHT22;8074;48.112;11.570;2022-10-26T15:17:38;19.40;99.90
15951;DHT22;8074;48.112;11.570;2022-10-26T15:20:11;19.20;99.90
15951;DHT22;8074;48.112;11.570;2022-10-26T15:22:41;19.20;99.90
15951;DHT22;8074;48.112;11.570;2022-10-26T15:25:17;19.10;99.90
15951;DHT22;8074;48.112;11.570;2022-10-26T15:27:48;19.00;99.90
15951;DHT22;8074;48.112;11.570;2022-10-26T15:30:21;19.00;99.90
15951;DHT22;8074;48.112;11.570;2022-10-26T15:32:53;19.00;99.90
15951;DHT22;8074;48.112;11.570;2022-10-26T15:35:30;18.90;99.90
15951;DHT22;8074;48.112;11.570;2022-10-26T15:37:58;18.90;99.90
15951;DHT22;8074;48.112;11.570;2022-10-26T15:40:27;18.90;99.90
15951;DHT22;8074;48.112;11.570;2022-10-26T15:42:59;18.90;99.90
15951;DHT22;8074;48.112;11.570;2022-10-26T15:45:29;18.90;99.90
15951;DHT22;8074;48.112;11.570;2022-10-26T15:47:59;18.80;99.90
15951;DHT22;8074;48.112;11.570;2022-10-26T15:50:27;18.70;99.90
15951;DHT22;8074;48.112;11.570;2022-10-26T15:53:00;18.50;99.90
15951;DHT22;8074;48.112;11.570;2022-10-26T15:55:29;18.50;99.90
15951;DHT22;8074;48.112;11.570;2022-10-26T15:57:56;18.40;99.90
15951;DHT22;8074;48.112;11.570;2022-10-26T16:00:23;18.20;99.90
15951;DHT22;8074;48.112;11.570;2022-10-26T16:03:08;18.20;99.90
15951;DHT22;8074;48.112;11.570;2022-10-26T16:05:39;18.10;99.90
15951;DHT22;8074;48.112;11.570;2022-10-26T16:08:08;17.90;99.90
15951;DHT22;8074;48.112;11.570;2022-10-26T16:10:37;17.90;99.90
15951;DHT22;8074;48.112;11.570;2022-10-26T16:13:04;18.10;99.90
15951;DHT22;8074;48.112;11.570;2022-10-26T16:15:38;18.10;99.90
15951;DHT22;8074;48.112;11.570;2022-10-26T16:18:05;18.30;99.90
15951;DHT22;8074;48.112;11.570;2022-10-26T16:20:39;18.40;99.90
15951;DHT22;8074;48.112;11.570;2022-10-26T16:23:49;18.40;99.90
15951;DHT22;8074;48.112;11.570;2022-10-26T16:26:23;18.30;99.90
15951;DHT22;8074;48.112;11.570;2022-10-26T16:28:50;18.10;99.90
15951;DHT22;8074;48.112;11.570;2022-10-26T16:31:18;17.80;99.90
15951;DHT22;8074;48.112;11.570;2022-10-26T16:33:49;17.80;99.90
15951;DHT22;8074;48.112;11.570;2022-10-26T16:36:18;17.80;99.90
15951;DHT22;8074;48.112;11.570;2022-10-26T16:38:45;17.80;99.90
15951;DHT22;8074;48.112;11.570;2022-10-26T16:41:13;17.80;99.90